createdAt,value
2017-12-21T00:02:17.555Z,-2.50
2017-12-21T00:04:44.775Z,-2.50
2017-12-21T00:07:12.679Z,-2.40
2017-12-21T00:09:39.734Z,-2.30
2017-12-21T00:12:07.096Z,-2.40
2017-12-21T00:14:34.251Z,-2.30
2017-12-21T00:17:01.565Z,-2.20
2017-12-21T00:19:28.556Z,-2.20
2017-12-21T00:21:55.745Z,-2.20
2017-12-21T00:24:23.584Z,-2.10
2017-12-21T00:26:50.744Z,-2.10
2017-12-21T00:29:18.344Z,-2.00
2017-12-21T00:31:46.179Z,-2.10
2017-12-21T00:34:13.332Z,-2.10
2017-12-21T00:36:40.527Z,-2.10
2017-12-21T00:39:08.567Z,-2.10
2017-12-21T00:41:35.543Z,-2.10
2017-12-21T00:44:04.615Z,-2.20
2017-12-21T00:46:31.664Z,-2.20
2017-12-21T00:48:59.535Z,-2.20
2017-12-21T00:51:26.703Z,-2.30
2017-12-21T00:53:53.949Z,-2.40
2017-12-21T00:56:21.003Z,-2.40
2017-12-21T00:58:48.052Z,-2.50
2017-12-21T01:01:15.010Z,-2.60
2017-12-21T01:03:42.263Z,-2.70
2017-12-21T01:06:09.312Z,-2.80
2017-12-21T01:08:36.675Z,-2.90
2017-12-21T01:11:03.927Z,-2.90
2017-12-21T01:13:31.018Z,-3.10
2017-12-21T01:15:58.966Z,-3.10
2017-12-21T01:18:26.012Z,-3.10
2017-12-21T01:20:53.169Z,-3.10
2017-12-21T01:23:21.250Z,-3.20
2017-12-21T01:25:48.504Z,-3.30
2017-12-21T01:28:15.756Z,-3.30
2017-12-21T01:30:43.119Z,-3.30
2017-12-21T01:33:10.991Z,-3.50
2017-12-21T01:35:38.039Z,-3.50
2017-12-21T01:38:05.201Z,-3.50
2017-12-21T01:40:32.252Z,-3.60
2017-12-21T01:42:59.607Z,-3.60
2017-12-21T01:45:26.767Z,-3.60
2017-12-21T01:47:54.024Z,-3.70
2017-12-21T01:50:21.175Z,-3.70
2017-12-21T01:52:48.335Z,-3.70
2017-12-21T01:55:15.479Z,-3.80
2017-12-21T01:57:42.537Z,-3.80
2017-12-21T02:00:09.613Z,-3.90
2017-12-21T02:02:36.850Z,-3.90
2017-12-21T02:05:04.004Z,-3.90
2017-12-21T02:07:31.064Z,-4.00
2017-12-21T02:09:58.111Z,-4.00
2017-12-21T02:12:26.080Z,-4.10
2017-12-21T02:14:53.239Z,-4.20
2017-12-21T02:17:20.399Z,-4.20
2017-12-21T02:19:47.447Z,-4.30
2017-12-21T02:22:14.808Z,-4.20
2017-12-21T02:24:41.808Z,-4.20
2017-12-21T02:27:09.015Z,-4.20
2017-12-21T02:29:36.164Z,-4.20
2017-12-21T02:32:03.220Z,-4.20
2017-12-21T02:34:30.279Z,-4.10
2017-12-21T02:36:57.247Z,-4.00
2017-12-21T02:39:24.996Z,-4.00
2017-12-21T02:41:52.252Z,-3.90
2017-12-21T02:44:19.408Z,-3.90
2017-12-21T02:46:46.871Z,-3.80
2017-12-21T02:49:14.125Z,-3.80
2017-12-21T02:51:41.171Z,-3.70
2017-12-21T02:54:08.536Z,-3.70
2017-12-21T02:56:35.903Z,-3.60
2017-12-21T02:59:03.461Z,-3.60
2017-12-21T03:01:30.511Z,-3.50
2017-12-21T03:03:57.776Z,-3.50
2017-12-21T03:06:24.823Z,-3.40
2017-12-21T03:08:51.976Z,-3.30
2017-12-21T03:11:19.136Z,-3.30
2017-12-21T03:13:46.194Z,-3.30
2017-12-21T03:16:13.245Z,-3.30
2017-12-21T03:18:42.877Z,-3.20
2017-12-21T03:21:10.208Z,-3.20
2017-12-21T03:23:37.471Z,-3.10
2017-12-21T03:26:04.738Z,-3.00
2017-12-21T03:28:31.880Z,-3.00
2017-12-21T03:30:58.928Z,-3.00
2017-12-21T03:33:26.292Z,-2.90
2017-12-21T03:35:53.351Z,-2.90
2017-12-21T03:38:20.496Z,-2.80
2017-12-21T03:40:47.760Z,-2.70
2017-12-21T03:43:14.847Z,-2.70
2017-12-21T03:45:42.679Z,-2.60
2017-12-21T03:48:09.684Z,-2.60
2017-12-21T03:50:36.790Z,-2.60
2017-12-21T03:53:04.124Z,-2.60
2017-12-21T03:55:31.304Z,-2.60
2017-12-21T03:57:59.895Z,-2.50
2017-12-21T04:00:27.041Z,-2.50
2017-12-21T04:02:54.304Z,-2.40
2017-12-21T04:05:21.455Z,-2.30
2017-12-21T04:07:48.572Z,-2.20
2017-12-21T04:10:15.708Z,-2.10
2017-12-21T04:12:43.520Z,-1.90
2017-12-21T04:15:10.588Z,-1.90
2017-12-21T04:17:37.644Z,-1.80
2017-12-21T04:20:04.900Z,-1.70
2017-12-21T04:22:32.052Z,-1.50
2017-12-21T04:24:59.008Z,-1.40
2017-12-21T04:27:26.164Z,-1.30
2017-12-21T04:29:53.216Z,-1.20
2017-12-21T04:32:20.372Z,-1.20
2017-12-21T04:34:47.519Z,-1.10
2017-12-21T04:37:14.684Z,-1.10
2017-12-21T04:39:43.164Z,-1.00
2017-12-21T04:42:10.832Z,-0.90
2017-12-21T04:44:37.884Z,-0.80
2017-12-21T04:47:05.095Z,-0.90
2017-12-21T04:49:32.503Z,-0.90
2017-12-21T04:51:59.552Z,-0.80
2017-12-21T04:54:26.768Z,-0.80
2017-12-21T04:56:53.863Z,-0.80
2017-12-21T04:59:21.124Z,-0.80
2017-12-21T05:01:48.277Z,-0.70
2017-12-21T05:04:15.432Z,-0.70
2017-12-21T05:06:42.490Z,-0.70
2017-12-21T05:09:09.541Z,-0.60
2017-12-21T05:11:36.900Z,-0.60
2017-12-21T05:14:04.048Z,-0.60
2017-12-21T05:16:46.148Z,-0.50
2017-12-21T05:19:13.608Z,-0.40
2017-12-21T05:21:40.661Z,-0.40
2017-12-21T05:24:08.132Z,-0.40
2017-12-21T05:26:35.376Z,-0.40
2017-12-21T05:29:02.542Z,-0.30
2017-12-21T05:31:30.556Z,-0.30
2017-12-21T05:33:58.384Z,0.00
2017-12-21T05:36:25.535Z,0.00
2017-12-21T05:38:53.182Z,0.00
2017-12-21T05:41:20.469Z,0.00
2017-12-21T05:43:47.719Z,0.00
2017-12-21T05:46:14.876Z,0.00
2017-12-21T05:48:42.231Z,0.10
2017-12-21T05:51:09.591Z,0.10
2017-12-21T05:53:36.751Z,0.10
2017-12-21T05:56:04.000Z,0.10
2017-12-21T05:58:31.159Z,0.10
2017-12-21T06:00:58.423Z,0.10
2017-12-21T06:03:25.575Z,0.10
2017-12-21T06:05:52.735Z,0.00
2017-12-21T06:08:19.775Z,0.00
2017-12-21T06:10:47.036Z,0.00
2017-12-21T06:13:14.767Z,0.00
2017-12-21T06:15:41.855Z,0.10
2017-12-21T06:18:09.635Z,0.10
2017-12-21T06:20:36.685Z,0.10
2017-12-21T06:23:03.762Z,0.10
2017-12-21T06:25:31.607Z,0.10
2017-12-21T06:27:58.766Z,0.10
2017-12-21T06:30:26.236Z,0.20
2017-12-21T06:32:53.316Z,0.20
2017-12-21T06:35:21.044Z,0.20
2017-12-21T06:37:48.135Z,0.20
2017-12-21T06:40:16.073Z,0.20
2017-12-21T06:42:43.023Z,0.20
2017-12-21T06:45:09.967Z,0.20
2017-12-21T06:47:37.970Z,0.30
2017-12-21T06:50:05.511Z,0.30
2017-12-21T06:52:32.589Z,0.30
2017-12-21T06:55:00.432Z,0.30
2017-12-21T06:57:27.491Z,0.30
2017-12-21T06:59:54.540Z,0.30
2017-12-21T07:02:22.413Z,0.30
2017-12-21T07:04:49.572Z,0.30
2017-12-21T07:07:16.616Z,0.40
2017-12-21T07:09:43.871Z,0.40
2017-12-21T07:12:10.927Z,0.40
2017-12-21T07:14:38.183Z,0.40
2017-12-21T07:17:05.448Z,0.40
2017-12-21T07:19:32.696Z,0.50
2017-12-21T07:22:01.397Z,0.50
2017-12-21T07:24:28.548Z,0.60
2017-12-21T07:26:55.709Z,0.60
2017-12-21T07:29:22.752Z,0.60
2017-12-21T07:31:49.812Z,0.70
2017-12-21T07:34:16.964Z,0.70
2017-12-21T07:36:44.126Z,0.70
2017-12-21T07:39:11.164Z,0.70
2017-12-21T07:41:38.319Z,0.70
2017-12-21T07:44:05.580Z,0.70
2017-12-21T07:46:32.639Z,0.70
2017-12-21T07:48:59.788Z,0.70
2017-12-21T07:51:27.864Z,0.70
2017-12-21T07:53:54.916Z,0.70
2017-12-21T07:56:22.071Z,0.70
2017-12-21T07:58:49.087Z,0.80
2017-12-21T08:01:16.180Z,0.90
2017-12-21T08:03:44.156Z,0.80
2017-12-21T08:06:11.199Z,0.90
2017-12-21T08:08:38.260Z,1.00
2017-12-21T08:11:05.412Z,1.00
2017-12-21T08:13:32.772Z,1.10
2017-12-21T08:15:59.928Z,1.20
2017-12-21T08:18:27.053Z,1.10
2017-12-21T08:20:54.444Z,1.20
2017-12-21T08:23:21.393Z,1.10
2017-12-21T08:25:49.676Z,1.10
2017-12-21T08:28:16.620Z,1.20
2017-12-21T08:30:43.775Z,1.20
2017-12-21T08:33:10.852Z,1.20
2017-12-21T08:35:38.607Z,1.20
2017-12-21T08:38:06.068Z,1.20
2017-12-21T08:40:33.222Z,1.20
2017-12-21T08:43:00.471Z,1.20
2017-12-21T08:45:27.527Z,1.30
2017-12-21T08:47:54.783Z,1.30
2017-12-21T08:50:22.043Z,1.40
2017-12-21T08:52:49.913Z,1.50
2017-12-21T08:55:16.964Z,1.50
2017-12-21T08:57:44.327Z,1.60
2017-12-21T09:00:11.593Z,1.60
2017-12-21T09:02:38.797Z,1.70
2017-12-21T09:05:05.895Z,1.80
2017-12-21T09:07:33.370Z,1.80
2017-12-21T09:10:00.719Z,1.90
2017-12-21T09:12:28.182Z,2.00
2017-12-21T09:14:55.231Z,2.00
2017-12-21T09:17:22.416Z,2.00
2017-12-21T09:19:49.644Z,2.00
2017-12-21T09:22:16.700Z,2.10
2017-12-21T09:24:44.367Z,2.20
2017-12-21T09:27:11.519Z,2.20
2017-12-21T09:29:39.284Z,2.30
2017-12-21T09:32:06.335Z,2.20
2017-12-21T09:34:33.600Z,2.20
2017-12-21T09:37:00.652Z,2.10
2017-12-21T09:39:27.903Z,2.10
2017-12-21T09:41:55.172Z,2.10
2017-12-21T09:44:22.828Z,2.10
2017-12-21T09:46:49.879Z,2.10
2017-12-21T09:49:16.932Z,2.20
2017-12-21T09:51:44.191Z,2.20
2017-12-21T09:54:11.247Z,2.20
2017-12-21T09:56:38.303Z,2.30
2017-12-21T09:59:05.356Z,2.50
2017-12-21T10:01:32.608Z,2.50
2017-12-21T10:03:59.663Z,2.60
2017-12-21T10:06:26.666Z,2.70
2017-12-21T10:08:54.072Z,2.80
2017-12-21T10:11:21.330Z,2.80
2017-12-21T10:13:48.484Z,2.90
2017-12-21T10:16:15.644Z,2.90
2017-12-21T10:18:42.900Z,2.90
2017-12-21T10:21:09.951Z,2.90
2017-12-21T10:23:37.184Z,2.90
2017-12-21T10:26:04.465Z,2.90
2017-12-21T10:28:31.540Z,3.10
2017-12-21T10:31:00.136Z,3.30
2017-12-21T10:33:27.359Z,3.30
2017-12-21T10:35:54.420Z,3.40
2017-12-21T10:38:22.088Z,3.40
2017-12-21T10:40:49.135Z,3.50
2017-12-21T10:43:16.391Z,3.50
2017-12-21T10:45:43.349Z,3.60
2017-12-21T10:48:10.500Z,3.60
2017-12-21T10:50:37.660Z,3.60
2017-12-21T10:53:05.591Z,3.60
2017-12-21T10:55:32.803Z,3.60
2017-12-21T10:57:59.940Z,3.60
2017-12-21T11:00:27.096Z,3.50
2017-12-21T11:02:54.351Z,3.50
2017-12-21T11:05:21.508Z,3.50
2017-12-21T11:07:48.863Z,3.40
2017-12-21T11:10:15.924Z,3.50
2017-12-21T11:12:42.975Z,3.50
2017-12-21T11:15:10.122Z,3.50
2017-12-21T11:17:37.216Z,3.50
2017-12-21T11:20:04.952Z,3.50
2017-12-21T11:22:32.108Z,3.40
2017-12-21T11:24:59.364Z,3.50
2017-12-21T11:27:27.132Z,3.60
2017-12-21T11:29:54.492Z,3.60
2017-12-21T11:32:22.215Z,3.60
2017-12-21T11:34:49.418Z,3.60
2017-12-21T11:37:16.671Z,3.60
2017-12-21T11:39:43.720Z,3.50
2017-12-21T11:42:10.879Z,3.50
2017-12-21T11:44:38.240Z,3.50
2017-12-21T11:47:05.293Z,3.40
2017-12-21T11:49:33.376Z,3.50
2017-12-21T11:52:00.631Z,3.50
2017-12-21T11:54:27.776Z,3.50
2017-12-21T11:56:55.141Z,3.60
2017-12-21T11:59:22.200Z,3.60
2017-12-21T12:01:49.343Z,3.60
2017-12-21T12:04:16.409Z,3.60
2017-12-21T12:06:43.632Z,3.60
2017-12-21T12:09:10.810Z,3.60
2017-12-21T12:11:38.685Z,3.60
2017-12-21T12:14:05.836Z,3.70
2017-12-21T12:16:32.997Z,3.60
2017-12-21T12:19:00.152Z,3.60
2017-12-21T12:21:27.408Z,3.70
2017-12-21T12:23:54.567Z,3.70
2017-12-21T12:26:22.740Z,3.70
2017-12-21T12:28:49.952Z,3.70
2017-12-21T12:31:17.152Z,3.70
2017-12-21T12:33:44.304Z,3.80
2017-12-21T12:36:11.564Z,3.80
2017-12-21T12:38:38.724Z,3.90
2017-12-21T12:41:06.185Z,4.00
2017-12-21T12:43:33.649Z,4.00
2017-12-21T12:46:02.237Z,4.10
2017-12-21T12:48:29.590Z,4.10
2017-12-21T12:50:57.159Z,4.10
2017-12-21T12:53:24.512Z,4.20
2017-12-21T12:55:51.768Z,4.10
2017-12-21T12:58:20.153Z,4.20
2017-12-21T13:00:48.239Z,4.20
2017-12-21T13:03:15.281Z,4.20
2017-12-21T13:05:42.544Z,4.30
2017-12-21T13:08:09.799Z,4.20
2017-12-21T13:10:37.572Z,4.30
2017-12-21T13:13:04.621Z,4.30
2017-12-21T13:15:34.340Z,4.20
2017-12-21T13:18:01.695Z,4.20
2017-12-21T13:20:28.751Z,4.10
2017-12-21T13:22:56.175Z,4.10
2017-12-21T13:25:23.573Z,4.10
2017-12-21T13:27:50.731Z,4.00
2017-12-21T13:30:17.888Z,4.00
2017-12-21T13:32:45.957Z,4.00
2017-12-21T13:35:13.104Z,4.00
2017-12-21T13:37:40.280Z,3.90
2017-12-21T13:40:08.892Z,4.00
2017-12-21T13:42:36.856Z,3.90
2017-12-21T13:45:04.232Z,3.90
2017-12-21T13:47:32.263Z,3.90
2017-12-21T13:49:59.532Z,3.90
2017-12-21T13:52:26.782Z,3.90
2017-12-21T13:54:53.930Z,4.00
2017-12-21T13:57:21.799Z,3.90
2017-12-21T13:59:48.959Z,3.90
2017-12-21T14:02:16.212Z,3.90
2017-12-21T14:04:43.176Z,3.90
2017-12-21T14:07:11.756Z,3.90
2017-12-21T14:09:39.012Z,4.00
2017-12-21T14:12:06.383Z,3.90
2017-12-21T14:14:33.734Z,4.00
2017-12-21T14:17:01.088Z,4.00
2017-12-21T14:19:28.149Z,4.00
2017-12-21T14:21:55.951Z,4.00
2017-12-21T14:24:24.776Z,3.90
2017-12-21T14:26:51.864Z,3.90
2017-12-21T14:29:19.230Z,3.80
2017-12-21T14:31:46.480Z,3.80
2017-12-21T18:06:02.060Z,2.70
2017-12-21T18:08:29.413Z,2.70
2017-12-21T18:10:56.881Z,2.60
2017-12-21T18:13:24.337Z,2.60
2017-12-21T18:18:24.484Z,2.70
2017-12-21T18:21:06.677Z,2.70
2017-12-21T18:23:33.940Z,2.70
2017-12-21T18:28:34.186Z,2.70
2017-12-21T18:31:01.648Z,2.70
2017-12-21T18:33:28.901Z,2.70
2017-12-21T18:35:56.466Z,2.70
2017-12-21T18:38:23.628Z,2.70
2017-12-21T18:40:51.096Z,2.70
2017-12-21T18:43:18.548Z,2.70
2017-12-21T18:45:46.012Z,2.60
2017-12-21T18:48:13.812Z,2.60
2017-12-21T18:50:41.245Z,2.60
2017-12-21T18:53:08.727Z,2.60
2017-12-21T18:55:36.268Z,2.60
2017-12-21T18:58:03.516Z,2.70
2017-12-21T19:00:31.057Z,2.70
2017-12-21T19:02:59.065Z,2.70
2017-12-21T19:05:26.426Z,2.70
2017-12-21T19:07:53.992Z,2.70
2017-12-21T19:10:21.348Z,2.70
2017-12-21T19:12:48.708Z,2.70
2017-12-21T19:15:16.081Z,2.70
2017-12-21T19:17:43.293Z,2.70
2017-12-21T19:20:11.300Z,2.70
2017-12-21T19:22:38.770Z,2.70
2017-12-21T19:25:06.119Z,2.70
2017-12-21T19:27:33.697Z,2.70
2017-12-21T19:30:01.074Z,2.70
2017-12-21T19:32:29.121Z,2.80
2017-12-21T19:34:57.532Z,2.80
2017-12-21T19:37:25.581Z,2.80
2017-12-21T19:39:53.873Z,2.80
2017-12-21T19:42:21.221Z,2.70
2017-12-21T19:44:48.581Z,2.80
2017-12-21T19:47:16.036Z,2.80
2017-12-21T19:49:43.700Z,2.80
2017-12-21T19:52:11.284Z,2.70
2017-12-21T19:54:39.401Z,2.70
2017-12-21T19:57:07.731Z,2.70
2017-12-21T19:59:35.192Z,2.70
2017-12-21T20:02:02.754Z,2.80
2017-12-21T20:04:30.124Z,2.70
2017-12-21T20:06:57.472Z,2.70
2017-12-21T20:09:24.854Z,2.70
2017-12-21T20:11:53.025Z,2.70
2017-12-21T20:14:20.482Z,2.70
2017-12-21T20:16:48.139Z,2.70
2017-12-21T20:19:15.708Z,2.70
2017-12-21T20:21:43.222Z,2.70
2017-12-21T20:24:10.429Z,2.60
2017-12-21T20:26:38.196Z,2.60
2017-12-21T20:29:05.654Z,2.70
2017-12-21T20:31:32.965Z,2.70
2017-12-21T20:34:00.276Z,2.60
2017-12-21T20:36:27.750Z,2.60
2017-12-21T20:38:55.104Z,2.70
2017-12-21T20:41:22.676Z,2.70
2017-12-21T20:43:50.130Z,2.60
2017-12-21T20:46:17.385Z,2.60
2017-12-21T20:48:45.228Z,2.70
2017-12-21T20:51:12.526Z,2.80
2017-12-21T20:53:39.968Z,2.70
2017-12-21T20:56:07.436Z,2.70
2017-12-21T20:58:34.697Z,2.70
2017-12-21T21:01:02.963Z,2.80
2017-12-21T21:03:30.334Z,2.90
2017-12-21T21:05:57.795Z,2.80
2017-12-21T21:08:25.148Z,2.80
2017-12-21T21:10:52.608Z,2.80
2017-12-21T21:13:19.878Z,2.80
2017-12-21T21:15:47.131Z,2.80
2017-12-21T21:18:14.742Z,2.80
2017-12-21T21:20:42.047Z,2.80
2017-12-21T21:23:10.474Z,2.80
2017-12-21T21:25:38.120Z,2.80
2017-12-21T21:28:06.072Z,2.70
2017-12-21T21:30:33.340Z,2.80
2017-12-21T21:33:00.801Z,2.80
2017-12-21T21:35:28.263Z,2.80
2017-12-21T21:37:55.425Z,2.80
2017-12-21T21:40:22.785Z,2.80
2017-12-21T21:42:50.300Z,2.70
2017-12-21T21:45:19.028Z,2.80
2017-12-21T21:47:46.712Z,2.70
2017-12-21T21:50:14.052Z,2.70
2017-12-21T21:52:41.516Z,2.70
2017-12-21T21:55:09.072Z,2.70
2017-12-21T21:57:36.348Z,2.70
2017-12-21T22:00:03.823Z,2.70
2017-12-21T22:02:31.166Z,2.70
2017-12-21T22:04:58.633Z,2.70
2017-12-21T22:07:26.908Z,2.70
2017-12-21T22:09:54.360Z,2.70
2017-12-21T22:12:21.827Z,2.70
2017-12-21T22:14:49.196Z,2.80
2017-12-21T22:17:17.059Z,2.80
2017-12-21T22:19:44.622Z,2.80
2017-12-21T22:22:12.105Z,2.80
2017-12-21T22:24:39.648Z,2.90
2017-12-21T22:27:07.220Z,2.90
2017-12-21T22:29:34.674Z,2.90
2017-12-21T22:32:02.040Z,2.80
2017-12-21T22:34:29.495Z,2.90
2017-12-21T22:36:56.660Z,2.80
2017-12-21T22:39:24.011Z,2.90
2017-12-21T22:41:51.483Z,2.90
2017-12-21T22:44:18.890Z,2.80
2017-12-21T22:46:46.964Z,2.70
2017-12-21T22:49:15.101Z,2.80
2017-12-21T22:51:43.074Z,2.80
2017-12-21T22:54:10.424Z,2.70
2017-12-21T22:56:37.894Z,2.80
2017-12-21T22:59:05.449Z,2.90
2017-12-21T23:01:32.842Z,2.90
2017-12-21T23:04:00.265Z,2.90
2017-12-21T23:06:27.633Z,3.00
2017-12-21T23:08:55.399Z,2.90
2017-12-21T23:11:22.652Z,3.00
2017-12-21T23:13:50.316Z,2.90
2017-12-21T23:16:17.788Z,2.90
2017-12-21T23:18:45.251Z,2.90
2017-12-21T23:21:12.559Z,2.90
2017-12-21T23:23:40.985Z,2.80
2017-12-21T23:26:08.353Z,2.80
2017-12-21T23:28:35.814Z,2.80
2017-12-21T23:31:03.177Z,2.80
2017-12-21T23:33:30.633Z,2.80
2017-12-21T23:35:57.891Z,2.90
2017-12-21T23:38:25.349Z,2.90
2017-12-21T23:40:52.708Z,2.90
2017-12-21T23:43:19.982Z,2.80
2017-12-21T23:45:48.967Z,2.90
2017-12-21T23:48:16.426Z,2.80
2017-12-21T23:50:44.212Z,2.70
2017-12-21T23:53:11.764Z,2.80
2017-12-21T23:55:39.121Z,2.80
2017-12-21T23:58:06.268Z,2.90
